sensor_id;sensor_type;location;lat;lon;timestamp;P1;durP1;ratioP1;P2;durP2;ratioP2
15198;SDS011;7700;48.654;9.070;2023-06-14T00:01:32;4.53;;;3.72;;
15198;SDS011;7700;48.654;9.070;2023-06-14T00:03:59;4.20;;;3.80;;
15198;SDS011;7700;48.654;9.070;2023-06-14T00:06:26;4.00;;;3.60;;
15198;SDS011;7700;48.654;9.070;2023-06-14T00:08:52;6.38;;;4.07;;
15198;SDS011;7700;48.654;9.070;2023-06-14T00:11:19;4.05;;;3.60;;
15198;SDS011;7700;48.654;9.070;2023-06-14T00:13:45;4.22;;;3.83;;
15198;SDS011;7700;48.654;9.070;2023-06-14T00:16:12;4.72;;;4.05;;
15198;SDS011;7700;48.654;9.070;2023-06-14T00:18:38;5.32;;;3.95;;
15198;SDS011;7700;48.654;9.070;2023-06-14T00:21:04;4.32;;;3.85;;
15198;SDS011;7700;48.654;9.070;2023-06-14T00:23:30;5.28;;;4.55;;
15198;SDS011;7700;48.654;9.070;2023-06-14T00:25:56;4.70;;;4.25;;
15198;SDS011;7700;48.654;9.070;2023-06-14T00:28:22;4.63;;;4.07;;
15198;SDS011;7700;48.654;9.070;2023-06-14T00:30:48;7.22;;;3.80;;
15198;SDS011;7700;48.654;9.070;2023-06-14T00:33:14;4.45;;;4.00;;
15198;SDS011;7700;48.654;9.070;2023-06-14T00:35:40;6.03;;;4.15;;
15198;SDS011;7700;48.654;9.070;2023-06-14T00:38:06;5.75;;;4.07;;
15198;SDS011;7700;48.654;9.070;2023-06-14T00:40:32;4.82;;;4.43;;
15198;SDS011;7700;48.654;9.070;2023-06-14T00:42:59;5.53;;;4.15;;
15198;SDS011;7700;48.654;9.070;2023-06-14T00:45:25;4.47;;;3.83;;
15198;SDS011;7700;48.654;9.070;2023-06-14T00:47:51;4.60;;;3.72;;
15198;SDS011;7700;48.654;9.070;2023-06-14T00:50:20;4.38;;;4.07;;
15198;SDS011;7700;48.654;9.070;2023-06-14T00:52:47;7.00;;;3.92;;
15198;SDS011;7700;48.654;9.070;2023-06-14T00:55:13;5.05;;;4.47;;
15198;SDS011;7700;48.654;9.070;2023-06-14T00:57:39;4.95;;;4.10;;
15198;SDS011;7700;48.654;9.070;2023-06-14T01:00:05;5.28;;;4.80;;
15198;SDS011;7700;48.654;9.070;2023-06-14T01:02:37;5.78;;;3.92;;
15198;SDS011;7700;48.654;9.070;2023-06-14T01:05:03;4.50;;;3.88;;
15198;SDS011;7700;48.654;9.070;2023-06-14T01:13:11;5.47;;;4.43;;
15198;SDS011;7700;48.654;9.070;2023-06-14T01:15:38;6.22;;;4.22;;
15198;SDS011;7700;48.654;9.070;2023-06-14T01:18:05;4.10;;;3.80;;
15198;SDS011;7700;48.654;9.070;2023-06-14T01:20:32;4.20;;;3.80;;
15198;SDS011;7700;48.654;9.070;2023-06-14T01:23:01;4.82;;;4.43;;
15198;SDS011;7700;48.654;9.070;2023-06-14T01:25:27;5.30;;;4.15;;
15198;SDS011;7700;48.654;9.070;2023-06-14T01:28:00;5.00;;;4.50;;
15198;SDS011;7700;48.654;9.070;2023-06-14T01:30:27;4.43;;;4.03;;
15198;SDS011;7700;48.654;9.070;2023-06-14T01:32:53;4.40;;;4.05;;
15198;SDS011;7700;48.654;9.070;2023-06-14T01:35:20;5.47;;;4.03;;
15198;SDS011;7700;48.654;9.070;2023-06-14T01:37:47;5.13;;;4.15;;
15198;SDS011;7700;48.654;9.070;2023-06-14T01:40:13;7.07;;;4.85;;
15198;SDS011;7700;48.654;9.070;2023-06-14T01:42:40;4.60;;;4.20;;
15198;SDS011;7700;48.654;9.070;2023-06-14T01:45:06;5.60;;;4.82;;
15198;SDS011;7700;48.654;9.070;2023-06-14T01:47:32;6.57;;;4.40;;
15198;SDS011;7700;48.654;9.070;2023-06-14T01:50:00;6.20;;;5.10;;
15198;SDS011;7700;48.654;9.070;2023-06-14T01:52:27;5.22;;;4.68;;
15198;SDS011;7700;48.654;9.070;2023-06-14T01:54:53;6.03;;;4.60;;
15198;SDS011;7700;48.654;9.070;2023-06-14T01:57:19;6.25;;;4.82;;
15198;SDS011;7700;48.654;9.070;2023-06-14T01:59:46;4.95;;;4.50;;
15198;SDS011;7700;48.654;9.070;2023-06-14T02:02:13;4.45;;;4.03;;
15198;SDS011;7700;48.654;9.070;2023-06-14T02:04:40;4.53;;;4.13;;
15198;SDS011;7700;48.654;9.070;2023-06-14T02:07:06;4.68;;;4.28;;
15198;SDS011;7700;48.654;9.070;2023-06-14T02:09:32;4.75;;;4.25;;
15198;SDS011;7700;48.654;9.070;2023-06-14T02:11:58;4.30;;;4.00;;
15198;SDS011;7700;48.654;9.070;2023-06-14T02:14:24;5.28;;;3.83;;
15198;SDS011;7700;48.654;9.070;2023-06-14T02:16:51;4.43;;;4.07;;
15198;SDS011;7700;48.654;9.070;2023-06-14T02:19:18;4.63;;;4.23;;
15198;SDS011;7700;48.654;9.070;2023-06-14T02:21:45;5.60;;;4.47;;
15198;SDS011;7700;48.654;9.070;2023-06-14T02:24:11;5.30;;;4.82;;
15198;SDS011;7700;48.654;9.070;2023-06-14T02:26:37;5.43;;;4.70;;
15198;SDS011;7700;48.654;9.070;2023-06-14T02:29:03;6.25;;;4.35;;
15198;SDS011;7700;48.654;9.070;2023-06-14T02:31:30;5.03;;;4.30;;
15198;SDS011;7700;48.654;9.070;2023-06-14T02:33:56;4.82;;;4.43;;
15198;SDS011;7700;48.654;9.070;2023-06-14T02:36:22;5.57;;;5.00;;
15198;SDS011;7700;48.654;9.070;2023-06-14T02:38:49;5.20;;;4.72;;
15198;SDS011;7700;48.654;9.070;2023-06-14T02:41:15;5.13;;;4.50;;
15198;SDS011;7700;48.654;9.070;2023-06-14T02:43:41;6.88;;;4.30;;
15198;SDS011;7700;48.654;9.070;2023-06-14T02:46:06;4.80;;;4.25;;
15198;SDS011;7700;48.654;9.070;2023-06-14T02:48:32;4.70;;;4.27;;
15198;SDS011;7700;48.654;9.070;2023-06-14T02:50:59;7.00;;;5.10;;
15198;SDS011;7700;48.654;9.070;2023-06-14T02:53:25;4.70;;;4.03;;
15198;SDS011;7700;48.654;9.070;2023-06-14T02:55:50;5.33;;;4.33;;
15198;SDS011;7700;48.654;9.070;2023-06-14T02:58:17;5.57;;;4.90;;
15198;SDS011;7700;48.654;9.070;2023-06-14T03:00:43;4.43;;;4.03;;
15198;SDS011;7700;48.654;9.070;2023-06-14T03:03:10;4.88;;;4.38;;
15198;SDS011;7700;48.654;9.070;2023-06-14T03:05:45;5.88;;;4.70;;
15198;SDS011;7700;48.654;9.070;2023-06-14T03:08:12;4.90;;;4.50;;
15198;SDS011;7700;48.654;9.070;2023-06-14T03:10:47;5.43;;;4.10;;
15198;SDS011;7700;48.654;9.070;2023-06-14T03:13:16;6.00;;;4.47;;
15198;SDS011;7700;48.654;9.070;2023-06-14T03:15:45;6.00;;;4.53;;
15198;SDS011;7700;48.654;9.070;2023-06-14T03:18:12;5.23;;;4.73;;
15198;SDS011;7700;48.654;9.070;2023-06-14T03:20:40;5.27;;;4.73;;
15198;SDS011;7700;48.654;9.070;2023-06-14T03:23:08;5.13;;;4.63;;
15198;SDS011;7700;48.654;9.070;2023-06-14T03:25:34;5.20;;;4.70;;
15198;SDS011;7700;48.654;9.070;2023-06-14T03:28:00;4.90;;;4.50;;
15198;SDS011;7700;48.654;9.070;2023-06-14T03:30:26;5.20;;;4.70;;
15198;SDS011;7700;48.654;9.070;2023-06-14T03:32:52;5.10;;;4.70;;
15198;SDS011;7700;48.654;9.070;2023-06-14T03:35:20;4.57;;;4.20;;
15198;SDS011;7700;48.654;9.070;2023-06-14T03:37:46;5.60;;;4.53;;
15198;SDS011;7700;48.654;9.070;2023-06-14T03:40:12;5.27;;;4.77;;
15198;SDS011;7700;48.654;9.070;2023-06-14T03:42:39;5.87;;;4.57;;
15198;SDS011;7700;48.654;9.070;2023-06-14T03:45:05;5.03;;;4.60;;
15198;SDS011;7700;48.654;9.070;2023-06-14T03:47:32;5.70;;;4.57;;
15198;SDS011;7700;48.654;9.070;2023-06-14T03:49:58;5.53;;;5.03;;
15198;SDS011;7700;48.654;9.070;2023-06-14T03:52:25;5.37;;;4.83;;
15198;SDS011;7700;48.654;9.070;2023-06-14T03:54:51;4.93;;;4.43;;
15198;SDS011;7700;48.654;9.070;2023-06-14T03:57:17;6.83;;;4.30;;
15198;SDS011;7700;48.654;9.070;2023-06-14T03:59:43;5.33;;;4.83;;
15198;SDS011;7700;48.654;9.070;2023-06-14T04:02:09;5.20;;;4.70;;
15198;SDS011;7700;48.654;9.070;2023-06-14T04:04:35;6.17;;;5.60;;
15198;SDS011;7700;48.654;9.070;2023-06-14T04:07:02;7.95;;;5.25;;
15198;SDS011;7700;48.654;9.070;2023-06-14T04:09:29;5.30;;;4.80;;
15198;SDS011;7700;48.654;9.070;2023-06-14T04:11:55;5.87;;;5.37;;
15198;SDS011;7700;48.654;9.070;2023-06-14T04:14:21;4.88;;;4.47;;
15198;SDS011;7700;48.654;9.070;2023-06-14T04:16:47;5.03;;;4.63;;
15198;SDS011;7700;48.654;9.070;2023-06-14T04:19:14;5.13;;;4.68;;
15198;SDS011;7700;48.654;9.070;2023-06-14T04:21:40;5.67;;;5.03;;
15198;SDS011;7700;48.654;9.070;2023-06-14T04:24:06;5.17;;;4.67;;
15198;SDS011;7700;48.654;9.070;2023-06-14T04:26:37;7.40;;;5.10;;
15198;SDS011;7700;48.654;9.070;2023-06-14T04:29:04;5.50;;;5.10;;
15198;SDS011;7700;48.654;9.070;2023-06-14T04:31:30;5.05;;;4.63;;
15198;SDS011;7700;48.654;9.070;2023-06-14T04:34:02;5.05;;;4.55;;
15198;SDS011;7700;48.654;9.070;2023-06-14T04:36:31;5.50;;;5.00;;
15198;SDS011;7700;48.654;9.070;2023-06-14T04:38:59;5.38;;;4.88;;
15198;SDS011;7700;48.654;9.070;2023-06-14T04:41:25;5.80;;;4.90;;
15198;SDS011;7700;48.654;9.070;2023-06-14T04:43:55;5.22;;;4.72;;
15198;SDS011;7700;48.654;9.070;2023-06-14T04:46:22;5.47;;;4.97;;
15198;SDS011;7700;48.654;9.070;2023-06-14T04:48:48;4.78;;;4.35;;
15198;SDS011;7700;48.654;9.070;2023-06-14T04:51:15;4.93;;;4.43;;
15198;SDS011;7700;48.654;9.070;2023-06-14T04:53:41;6.75;;;5.28;;
15198;SDS011;7700;48.654;9.070;2023-06-14T04:56:09;5.63;;;4.97;;
15198;SDS011;7700;48.654;9.070;2023-06-14T04:58:35;5.53;;;4.95;;
15198;SDS011;7700;48.654;9.070;2023-06-14T05:01:01;5.30;;;4.80;;
15198;SDS011;7700;48.654;9.070;2023-06-14T05:03:28;5.25;;;4.75;;
15198;SDS011;7700;48.654;9.070;2023-06-14T05:05:55;5.43;;;4.85;;
15198;SDS011;7700;48.654;9.070;2023-06-14T05:08:21;5.43;;;4.93;;
15198;SDS011;7700;48.654;9.070;2023-06-14T05:10:50;7.32;;;5.68;;
15198;SDS011;7700;48.654;9.070;2023-06-14T05:13:17;6.80;;;5.97;;
15198;SDS011;7700;48.654;9.070;2023-06-14T05:15:43;6.85;;;5.80;;
15198;SDS011;7700;48.654;9.070;2023-06-14T05:18:09;8.68;;;6.15;;
15198;SDS011;7700;48.654;9.070;2023-06-14T05:20:35;7.35;;;6.00;;
15198;SDS011;7700;48.654;9.070;2023-06-14T05:23:02;6.80;;;5.82;;
15198;SDS011;7700;48.654;9.070;2023-06-14T05:25:28;8.55;;;5.55;;
15198;SDS011;7700;48.654;9.070;2023-06-14T05:27:54;6.45;;;5.65;;
15198;SDS011;7700;48.654;9.070;2023-06-14T05:30:20;7.05;;;5.93;;
15198;SDS011;7700;48.654;9.070;2023-06-14T05:32:46;6.13;;;5.63;;
15198;SDS011;7700;48.654;9.070;2023-06-14T05:35:12;9.32;;;5.97;;
15198;SDS011;7700;48.654;9.070;2023-06-14T05:37:38;9.43;;;6.00;;
15198;SDS011;7700;48.654;9.070;2023-06-14T05:40:05;6.82;;;6.22;;
15198;SDS011;7700;48.654;9.070;2023-06-14T05:42:32;6.40;;;5.80;;
15198;SDS011;7700;48.654;9.070;2023-06-14T05:44:58;6.05;;;5.25;;
15198;SDS011;7700;48.654;9.070;2023-06-14T05:47:24;6.03;;;5.43;;
15198;SDS011;7700;48.654;9.070;2023-06-14T05:49:52;6.68;;;5.68;;
15198;SDS011;7700;48.654;9.070;2023-06-14T05:52:19;7.45;;;4.43;;
15198;SDS011;7700;48.654;9.070;2023-06-14T05:54:45;6.45;;;4.95;;
15198;SDS011;7700;48.654;9.070;2023-06-14T05:57:11;6.78;;;5.07;;
15198;SDS011;7700;48.654;9.070;2023-06-14T05:59:37;6.05;;;5.45;;
15198;SDS011;7700;48.654;9.070;2023-06-14T06:02:03;6.57;;;4.90;;
15198;SDS011;7700;48.654;9.070;2023-06-14T06:04:30;6.32;;;5.20;;
15198;SDS011;7700;48.654;9.070;2023-06-14T06:06:56;5.00;;;4.60;;
15198;SDS011;7700;48.654;9.070;2023-06-14T06:09:22;7.88;;;5.25;;
15198;SDS011;7700;48.654;9.070;2023-06-14T06:11:48;6.53;;;4.93;;
15198;SDS011;7700;48.654;9.070;2023-06-14T06:14:14;6.15;;;4.93;;
15198;SDS011;7700;48.654;9.070;2023-06-14T06:16:40;5.00;;;4.50;;
15198;SDS011;7700;48.654;9.070;2023-06-14T06:19:05;5.20;;;4.55;;
15198;SDS011;7700;48.654;9.070;2023-06-14T06:21:31;6.90;;;4.63;;
15198;SDS011;7700;48.654;9.070;2023-06-14T06:23:58;4.90;;;4.40;;
15198;SDS011;7700;48.654;9.070;2023-06-14T06:26:23;5.53;;;4.93;;
15198;SDS011;7700;48.654;9.070;2023-06-14T06:28:51;5.63;;;4.80;;
15198;SDS011;7700;48.654;9.070;2023-06-14T06:31:17;4.78;;;3.97;;
15198;SDS011;7700;48.654;9.070;2023-06-14T06:33:43;4.88;;;4.40;;
15198;SDS011;7700;48.654;9.070;2023-06-14T06:36:09;8.20;;;5.13;;
15198;SDS011;7700;48.654;9.070;2023-06-14T06:38:35;5.32;;;4.50;;
15198;SDS011;7700;48.654;9.070;2023-06-14T06:41:01;5.93;;;4.47;;
15198;SDS011;7700;48.654;9.070;2023-06-14T06:43:27;5.30;;;4.38;;
15198;SDS011;7700;48.654;9.070;2023-06-14T06:45:53;4.55;;;3.95;;
15198;SDS011;7700;48.654;9.070;2023-06-14T06:48:19;4.63;;;4.03;;
15198;SDS011;7700;48.654;9.070;2023-06-14T06:50:45;4.50;;;4.10;;
15198;SDS011;7700;48.654;9.070;2023-06-14T06:53:11;4.68;;;4.22;;
15198;SDS011;7700;48.654;9.070;2023-06-14T06:55:37;7.95;;;4.25;;
15198;SDS011;7700;48.654;9.070;2023-06-14T06:58:03;5.03;;;3.80;;
15198;SDS011;7700;48.654;9.070;2023-06-14T07:00:30;4.50;;;4.10;;
15198;SDS011;7700;48.654;9.070;2023-06-14T07:02:56;8.82;;;4.35;;
15198;SDS011;7700;48.654;9.070;2023-06-14T07:05:22;4.60;;;4.07;;
15198;SDS011;7700;48.654;9.070;2023-06-14T07:07:49;5.90;;;4.38;;
15198;SDS011;7700;48.654;9.070;2023-06-14T07:10:14;4.38;;;3.78;;
15198;SDS011;7700;48.654;9.070;2023-06-14T07:12:41;4.50;;;4.07;;
15198;SDS011;7700;48.654;9.070;2023-06-14T07:15:07;4.25;;;3.85;;
15198;SDS011;7700;48.654;9.070;2023-06-14T07:17:33;6.88;;;4.28;;
15198;SDS011;7700;48.654;9.070;2023-06-14T07:20:01;4.82;;;4.07;;
15198;SDS011;7700;48.654;9.070;2023-06-14T07:22:37;4.75;;;3.78;;
15198;SDS011;7700;48.654;9.070;2023-06-14T07:25:05;4.50;;;4.10;;
15198;SDS011;7700;48.654;9.070;2023-06-14T07:27:31;5.47;;;4.10;;
15198;SDS011;7700;48.654;9.070;2023-06-14T07:29:57;5.10;;;4.32;;
15198;SDS011;7700;48.654;9.070;2023-06-14T07:32:23;4.85;;;3.97;;
15198;SDS011;7700;48.654;9.070;2023-06-14T07:34:49;4.03;;;3.60;;
15198;SDS011;7700;48.654;9.070;2023-06-14T07:37:15;5.18;;;4.03;;
15198;SDS011;7700;48.654;9.070;2023-06-14T07:39:41;4.78;;;4.40;;
15198;SDS011;7700;48.654;9.070;2023-06-14T07:42:07;6.22;;;4.40;;
15198;SDS011;7700;48.654;9.070;2023-06-14T07:44:33;5.28;;;4.78;;
15198;SDS011;7700;48.654;9.070;2023-06-14T07:46:59;5.63;;;5.13;;
15198;SDS011;7700;48.654;9.070;2023-06-14T07:49:26;7.82;;;7.18;;
15198;SDS011;7700;48.654;9.070;2023-06-14T07:51:52;10.60;;;9.95;;
15198;SDS011;7700;48.654;9.070;2023-06-14T07:54:19;39.28;;;37.40;;
15198;SDS011;7700;48.654;9.070;2023-06-14T07:56:49;45.05;;;42.92;;
15198;SDS011;7700;48.654;9.070;2023-06-14T07:59:15;42.10;;;40.08;;
15198;SDS011;7700;48.654;9.070;2023-06-14T08:01:41;53.75;;;51.08;;
15198;SDS011;7700;48.654;9.070;2023-06-14T08:04:11;73.90;;;70.20;;
15198;SDS011;7700;48.654;9.070;2023-06-14T08:06:37;52.45;;;49.22;;
15198;SDS011;7700;48.654;9.070;2023-06-14T08:09:04;22.33;;;21.27;;
15198;SDS011;7700;48.654;9.070;2023-06-14T08:11:30;38.22;;;35.95;;
15198;SDS011;7700;48.654;9.070;2023-06-14T08:13:56;45.42;;;43.08;;
15198;SDS011;7700;48.654;9.070;2023-06-14T08:16:22;63.60;;;59.85;;
15198;SDS011;7700;48.654;9.070;2023-06-14T08:18:48;46.78;;;43.85;;
15198;SDS011;7700;48.654;9.070;2023-06-14T08:21:15;57.88;;;54.10;;
15198;SDS011;7700;48.654;9.070;2023-06-14T08:23:41;37.28;;;34.47;;
15198;SDS011;7700;48.654;9.070;2023-06-14T08:26:08;54.97;;;51.55;;
15198;SDS011;7700;48.654;9.070;2023-06-14T08:28:34;65.57;;;60.88;;
15198;SDS011;7700;48.654;9.070;2023-06-14T08:31:00;52.28;;;48.65;;
15198;SDS011;7700;48.654;9.070;2023-06-14T08:33:26;67.45;;;62.10;;
15198;SDS011;7700;48.654;9.070;2023-06-14T08:35:52;44.47;;;41.05;;
15198;SDS011;7700;48.654;9.070;2023-06-14T08:38:18;41.90;;;39.65;;
15198;SDS011;7700;48.654;9.070;2023-06-14T08:40:45;27.75;;;26.38;;
15198;SDS011;7700;48.654;9.070;2023-06-14T08:43:13;41.05;;;38.25;;
15198;SDS011;7700;48.654;9.070;2023-06-14T08:45:39;57.42;;;53.53;;
15198;SDS011;7700;48.654;9.070;2023-06-14T08:48:05;65.13;;;59.70;;
15198;SDS011;7700;48.654;9.070;2023-06-14T08:50:32;47.05;;;43.47;;
15198;SDS011;7700;48.654;9.070;2023-06-14T08:52:59;54.85;;;50.08;;
15198;SDS011;7700;48.654;9.070;2023-06-14T08:55:27;53.85;;;49.47;;
15198;SDS011;7700;48.654;9.070;2023-06-14T08:57:55;43.53;;;40.60;;
15198;SDS011;7700;48.654;9.070;2023-06-14T09:00:24;49.42;;;45.47;;
15198;SDS011;7700;48.654;9.070;2023-06-14T09:02:51;66.20;;;60.42;;
15198;SDS011;7700;48.654;9.070;2023-06-14T09:05:20;26.80;;;25.40;;
15198;SDS011;7700;48.654;9.070;2023-06-14T09:07:48;51.95;;;47.45;;
15198;SDS011;7700;48.654;9.070;2023-06-14T09:10:15;51.45;;;47.08;;
15198;SDS011;7700;48.654;9.070;2023-06-14T09:12:42;49.95;;;46.25;;
15198;SDS011;7700;48.654;9.070;2023-06-14T09:15:08;92.80;;;84.03;;
15198;SDS011;7700;48.654;9.070;2023-06-14T09:17:35;43.90;;;41.25;;
15198;SDS011;7700;48.654;9.070;2023-06-14T09:20:01;57.88;;;53.40;;
15198;SDS011;7700;48.654;9.070;2023-06-14T09:22:31;69.70;;;63.83;;
15198;SDS011;7700;48.654;9.070;2023-06-14T09:24:57;50.95;;;46.72;;
15198;SDS011;7700;48.654;9.070;2023-06-14T09:27:23;48.47;;;44.97;;
15198;SDS011;7700;48.654;9.070;2023-06-14T09:29:51;45.75;;;41.63;;
15198;SDS011;7700;48.654;9.070;2023-06-14T09:32:17;40.40;;;37.53;;
15198;SDS011;7700;48.654;9.070;2023-06-14T09:34:43;68.70;;;54.55;;
15198;SDS011;7700;48.654;9.070;2023-06-14T09:37:09;46.03;;;43.33;;
15198;SDS011;7700;48.654;9.070;2023-06-14T09:39:35;66.32;;;60.50;;
15198;SDS011;7700;48.654;9.070;2023-06-14T09:42:02;35.95;;;32.55;;
15198;SDS011;7700;48.654;9.070;2023-06-14T09:44:43;68.93;;;61.88;;
15198;SDS011;7700;48.654;9.070;2023-06-14T09:47:09;63.70;;;58.33;;
15198;SDS011;7700;48.654;9.070;2023-06-14T09:49:35;70.00;;;63.08;;
15198;SDS011;7700;48.654;9.070;2023-06-14T09:52:01;55.42;;;51.22;;
15198;SDS011;7700;48.654;9.070;2023-06-14T09:54:27;65.38;;;58.65;;
15198;SDS011;7700;48.654;9.070;2023-06-14T09:56:54;67.47;;;61.22;;
15198;SDS011;7700;48.654;9.070;2023-06-14T09:59:21;88.68;;;80.57;;
15198;SDS011;7700;48.654;9.070;2023-06-14T10:03:30;147.80;;;125.70;;
15198;SDS011;7700;48.654;9.070;2023-06-14T10:05:58;85.90;;;76.72;;
15198;SDS011;7700;48.654;9.070;2023-06-14T10:08:27;40.90;;;37.20;;
15198;SDS011;7700;48.654;9.070;2023-06-14T10:10:53;34.67;;;32.60;;
15198;SDS011;7700;48.654;9.070;2023-06-14T10:13:21;66.13;;;60.50;;
15198;SDS011;7700;48.654;9.070;2023-06-14T10:18:24;71.47;;;65.40;;
15198;SDS011;7700;48.654;9.070;2023-06-14T10:23:37;72.85;;;65.75;;
15198;SDS011;7700;48.654;9.070;2023-06-14T10:26:04;223.65;;;155.00;;
15198;SDS011;7700;48.654;9.070;2023-06-14T10:28:30;79.45;;;70.82;;
15198;SDS011;7700;48.654;9.070;2023-06-14T10:31:30;51.67;;;47.40;;
15198;SDS011;7700;48.654;9.070;2023-06-14T10:38:57;71.00;;;64.88;;
15198;SDS011;7700;48.654;9.070;2023-06-14T10:41:26;55.75;;;50.70;;
15198;SDS011;7700;48.654;9.070;2023-06-14T10:44:02;55.90;;;50.65;;
15198;SDS011;7700;48.654;9.070;2023-06-14T10:46:36;88.25;;;81.22;;
15198;SDS011;7700;48.654;9.070;2023-06-14T10:49:02;68.88;;;63.08;;
15198;SDS011;7700;48.654;9.070;2023-06-14T10:51:29;78.70;;;70.93;;
15198;SDS011;7700;48.654;9.070;2023-06-14T10:53:56;62.60;;;57.28;;
15198;SDS011;7700;48.654;9.070;2023-06-14T10:58:54;70.50;;;63.08;;
15198;SDS011;7700;48.654;9.070;2023-06-14T11:01:23;66.97;;;60.75;;
15198;SDS011;7700;48.654;9.070;2023-06-14T11:03:54;62.97;;;56.90;;
15198;SDS011;7700;48.654;9.070;2023-06-14T11:06:22;71.03;;;63.80;;
15198;SDS011;7700;48.654;9.070;2023-06-14T11:11:33;81.13;;;72.93;;
15198;SDS011;7700;48.654;9.070;2023-06-14T11:13:59;96.75;;;86.68;;
15198;SDS011;7700;48.654;9.070;2023-06-14T11:16:26;69.43;;;61.92;;
15198;SDS011;7700;48.654;9.070;2023-06-14T11:18:53;58.17;;;52.70;;
15198;SDS011;7700;48.654;9.070;2023-06-14T11:21:19;76.65;;;66.75;;
15198;SDS011;7700;48.654;9.070;2023-06-14T11:23:49;88.82;;;80.15;;
15198;SDS011;7700;48.654;9.070;2023-06-14T11:26:16;54.13;;;49.88;;
15198;SDS011;7700;48.654;9.070;2023-06-14T11:28:41;73.40;;;65.47;;
15198;SDS011;7700;48.654;9.070;2023-06-14T11:31:08;82.00;;;73.60;;
15198;SDS011;7700;48.654;9.070;2023-06-14T11:33:35;85.25;;;73.70;;
15198;SDS011;7700;48.654;9.070;2023-06-14T11:36:01;108.13;;;92.82;;
15198;SDS011;7700;48.654;9.070;2023-06-14T11:38:27;106.78;;;95.72;;
15198;SDS011;7700;48.654;9.070;2023-06-14T11:40:58;96.93;;;80.55;;
15198;SDS011;7700;48.654;9.070;2023-06-14T11:43:24;82.70;;;73.70;;
15198;SDS011;7700;48.654;9.070;2023-06-14T11:45:51;107.30;;;95.82;;
15198;SDS011;7700;48.654;9.070;2023-06-14T11:48:18;108.88;;;98.63;;
15198;SDS011;7700;48.654;9.070;2023-06-14T11:50:44;71.10;;;63.85;;
15198;SDS011;7700;48.654;9.070;2023-06-14T11:53:15;95.75;;;84.57;;
15198;SDS011;7700;48.654;9.070;2023-06-14T11:55:41;115.32;;;82.45;;
15198;SDS011;7700;48.654;9.070;2023-06-14T11:58:09;96.15;;;86.20;;
15198;SDS011;7700;48.654;9.070;2023-06-14T12:00:36;63.95;;;58.03;;
15198;SDS011;7700;48.654;9.070;2023-06-14T12:03:02;88.18;;;79.03;;
15198;SDS011;7700;48.654;9.070;2023-06-14T12:05:28;93.90;;;82.60;;
15198;SDS011;7700;48.654;9.070;2023-06-14T12:08:01;110.38;;;98.50;;
15198;SDS011;7700;48.654;9.070;2023-06-14T12:10:28;95.30;;;85.43;;
15198;SDS011;7700;48.654;9.070;2023-06-14T12:13:00;83.93;;;73.15;;
15198;SDS011;7700;48.654;9.070;2023-06-14T12:15:29;78.50;;;71.70;;
15198;SDS011;7700;48.654;9.070;2023-06-14T12:17:56;80.97;;;72.68;;
15198;SDS011;7700;48.654;9.070;2023-06-14T12:20:23;90.88;;;82.43;;
15198;SDS011;7700;48.654;9.070;2023-06-14T12:22:54;134.57;;;107.38;;
15198;SDS011;7700;48.654;9.070;2023-06-14T12:27:57;195.50;;;165.77;;
15198;SDS011;7700;48.654;9.070;2023-06-14T12:30:23;70.78;;;59.15;;
15198;SDS011;7700;48.654;9.070;2023-06-14T12:32:49;79.75;;;71.63;;
15198;SDS011;7700;48.654;9.070;2023-06-14T12:35:17;131.82;;;109.95;;
15198;SDS011;7700;48.654;9.070;2023-06-14T12:37:46;68.40;;;61.55;;
15198;SDS011;7700;48.654;9.070;2023-06-14T12:40:12;203.00;;;136.82;;
15198;SDS011;7700;48.654;9.070;2023-06-14T12:42:39;283.42;;;223.80;;
15198;SDS011;7700;48.654;9.070;2023-06-14T12:45:05;122.47;;;101.60;;
15198;SDS011;7700;48.654;9.070;2023-06-14T12:47:31;109.93;;;98.68;;
15198;SDS011;7700;48.654;9.070;2023-06-14T12:49:57;119.35;;;108.72;;
15198;SDS011;7700;48.654;9.070;2023-06-14T12:52:22;74.20;;;64.82;;
15198;SDS011;7700;48.654;9.070;2023-06-14T12:54:49;80.10;;;67.95;;
15198;SDS011;7700;48.654;9.070;2023-06-14T12:57:15;94.43;;;79.65;;
15198;SDS011;7700;48.654;9.070;2023-06-14T12:59:41;101.28;;;91.03;;
15198;SDS011;7700;48.654;9.070;2023-06-14T13:02:11;95.07;;;85.35;;
15198;SDS011;7700;48.654;9.070;2023-06-14T13:04:37;182.52;;;153.85;;
15198;SDS011;7700;48.654;9.070;2023-06-14T13:07:03;83.82;;;73.60;;
15198;SDS011;7700;48.654;9.070;2023-06-14T13:09:29;104.53;;;94.28;;
15198;SDS011;7700;48.654;9.070;2023-06-14T13:11:55;253.93;;;201.77;;
15198;SDS011;7700;48.654;9.070;2023-06-14T13:14:21;130.25;;;110.80;;
15198;SDS011;7700;48.654;9.070;2023-06-14T13:16:47;94.60;;;85.40;;
15198;SDS011;7700;48.654;9.070;2023-06-14T13:19:13;95.15;;;85.93;;
15198;SDS011;7700;48.654;9.070;2023-06-14T13:21:39;47.35;;;42.72;;
15198;SDS011;7700;48.654;9.070;2023-06-14T13:24:05;87.57;;;80.75;;
15198;SDS011;7700;48.654;9.070;2023-06-14T13:26:32;69.18;;;62.47;;
15198;SDS011;7700;48.654;9.070;2023-06-14T13:28:58;68.03;;;61.95;;
15198;SDS011;7700;48.654;9.070;2023-06-14T13:31:24;98.70;;;89.20;;
15198;SDS011;7700;48.654;9.070;2023-06-14T13:33:50;78.95;;;71.38;;
15198;SDS011;7700;48.654;9.070;2023-06-14T13:36:16;176.50;;;130.93;;
15198;SDS011;7700;48.654;9.070;2023-06-14T13:38:42;75.35;;;67.38;;
15198;SDS011;7700;48.654;9.070;2023-06-14T13:41:08;126.45;;;112.63;;
15198;SDS011;7700;48.654;9.070;2023-06-14T13:43:34;82.13;;;74.78;;
15198;SDS011;7700;48.654;9.070;2023-06-14T13:46:00;77.22;;;64.22;;
15198;SDS011;7700;48.654;9.070;2023-06-14T13:48:26;82.95;;;70.40;;
15198;SDS011;7700;48.654;9.070;2023-06-14T13:50:52;90.20;;;80.68;;
15198;SDS011;7700;48.654;9.070;2023-06-14T13:53:18;102.65;;;86.28;;
15198;SDS011;7700;48.654;9.070;2023-06-14T13:55:44;89.75;;;81.07;;
15198;SDS011;7700;48.654;9.070;2023-06-14T13:58:10;80.22;;;68.53;;
15198;SDS011;7700;48.654;9.070;2023-06-14T14:00:36;82.50;;;75.10;;
15198;SDS011;7700;48.654;9.070;2023-06-14T14:03:05;95.72;;;76.78;;
15198;SDS011;7700;48.654;9.070;2023-06-14T14:05:31;58.45;;;52.90;;
15198;SDS011;7700;48.654;9.070;2023-06-14T14:07:57;72.70;;;68.28;;
15198;SDS011;7700;48.654;9.070;2023-06-14T14:10:24;83.55;;;75.30;;
15198;SDS011;7700;48.654;9.070;2023-06-14T14:12:50;66.30;;;58.97;;
15198;SDS011;7700;48.654;9.070;2023-06-14T14:15:16;97.65;;;87.80;;
15198;SDS011;7700;48.654;9.070;2023-06-14T14:17:42;63.10;;;56.95;;
15198;SDS011;7700;48.654;9.070;2023-06-14T14:20:08;76.38;;;69.28;;
15198;SDS011;7700;48.654;9.070;2023-06-14T14:22:37;111.95;;;99.78;;
15198;SDS011;7700;48.654;9.070;2023-06-14T14:25:03;117.65;;;95.30;;
15198;SDS011;7700;48.654;9.070;2023-06-14T14:27:29;116.90;;;95.10;;
15198;SDS011;7700;48.654;9.070;2023-06-14T14:29:55;102.05;;;91.80;;
15198;SDS011;7700;48.654;9.070;2023-06-14T14:32:21;139.27;;;118.78;;
15198;SDS011;7700;48.654;9.070;2023-06-14T14:34:47;168.25;;;137.38;;
15198;SDS011;7700;48.654;9.070;2023-06-14T14:37:13;160.00;;;130.48;;
15198;SDS011;7700;48.654;9.070;2023-06-14T14:39:40;87.47;;;79.47;;
15198;SDS011;7700;48.654;9.070;2023-06-14T14:42:06;93.82;;;77.90;;
15198;SDS011;7700;48.654;9.070;2023-06-14T14:44:32;93.15;;;83.10;;
15198;SDS011;7700;48.654;9.070;2023-06-14T14:46:58;77.07;;;70.75;;
15198;SDS011;7700;48.654;9.070;2023-06-14T14:49:24;104.43;;;94.90;;
15198;SDS011;7700;48.654;9.070;2023-06-14T14:51:50;82.80;;;74.07;;
15198;SDS011;7700;48.654;9.070;2023-06-14T14:54:16;92.13;;;79.93;;
15198;SDS011;7700;48.654;9.070;2023-06-14T14:56:42;91.93;;;83.25;;
15198;SDS011;7700;48.654;9.070;2023-06-14T14:59:08;67.32;;;60.00;;
15198;SDS011;7700;48.654;9.070;2023-06-14T15:01:34;73.78;;;66.55;;
15198;SDS011;7700;48.654;9.070;2023-06-14T15:04:00;60.40;;;54.17;;
15198;SDS011;7700;48.654;9.070;2023-06-14T15:06:26;91.03;;;81.07;;
15198;SDS011;7700;48.654;9.070;2023-06-14T15:08:52;76.22;;;69.05;;